La rose des vents
Donnes mto: Semaine 16/06/08 - 22/06/08 (S 25)
Date Horaire Temp. E. Hum. E. P.atmo. Pluie Vent 1mn Direction Ensoleilleme Ev.Tr. Solaire P. de rose Temp au vent Rafales
16/06/2008 00:00 17,4 C 67 % 1008,0 hPa 0,0 l/m 19,0 km/h (3 Bft) SO 0,00 h 0,102 mm 0 W/m 11,2 C 17,4 C 24,4 km/h (4 Bft)
16/06/2008 01:00 16,7 C 72 % 1008,0 hPa 0,0 l/m 15,7 km/h (3 Bft) SO 0,00 h 0,102 mm 0 W/m 11,7 C 16,7 C 20,2 km/h (4 Bft)
16/06/2008 02:00 16,1 C 78 % 1008,1 hPa 0,0 l/m 7,4 km/h (2 Bft) SO 0,00 h 0,076 mm 0 W/m 12,3 C 16,1 C 10,7 km/h (2 Bft)
16/06/2008 03:00 15,7 C 78 % 1008,0 hPa 0,0 l/m 3,9 km/h (1 Bft) O-SO 0,00 h 0,051 mm 0 W/m 11,9 C 15,7 C 6,3 km/h (2 Bft)
16/06/2008 04:00 15,0 C 81 % 1008,0 hPa 0,0 l/m 3,3 km/h (1 Bft) O 0,00 h 0,025 mm 0 W/m 11,8 C 15,0 C 4,9 km/h (1 Bft)
16/06/2008 05:00 14,0 C 85 % 1008,1 hPa 0,0 l/m 6,3 km/h (2 Bft) O-NO 0,00 h 0,025 mm 7 W/m 11,6 C 14,0 C 8,5 km/h (2 Bft)
16/06/2008 06:00 13,7 C 83 % 1007,8 hPa 0,0 l/m 7,0 km/h (2 Bft) NO 0,05 h 0,025 mm 42 W/m 10,9 C 13,7 C 10,1 km/h (2 Bft)
16/06/2008 07:00 15,3 C 74 % 1007,6 hPa 0,0 l/m 1,3 km/h (1 Bft) N-NO 0,40 h 0,051 mm 140 W/m 10,7 C 15,3 C 2,9 km/h (1 Bft)
16/06/2008 08:00 17,7 C 67 % 1007,7 hPa 0,0 l/m 1,5 km/h (1 Bft) E 0,53 h 0,076 mm 237 W/m 11,6 C 17,7 C 3,0 km/h (1 Bft)
16/06/2008 09:00 19,2 C 65 % 1007,7 hPa 0,0 l/m 1,7 km/h (1 Bft) E 0,48 h 0,152 mm 397 W/m 12,5 C 19,2 C 3,5 km/h (1 Bft)
16/06/2008 10:00 21,4 C 63 % 1007,3 hPa 0,0 l/m 4,0 km/h (1 Bft) E 0,80 h 0,254 mm 518 W/m 14,1 C 21,4 C 7,0 km/h (2 Bft)
16/06/2008 11:00 20,9 C 68 % 1007,8 hPa 0,0 l/m 7,6 km/h (2 Bft) E 0,32 h 0,330 mm 427 W/m 14,7 C 20,9 C 11,1 km/h (2 Bft)
16/06/2008 12:00 21,7 C 70 % 1007,8 hPa 0,0 l/m 9,0 km/h (2 Bft) E 0,82 h 0,305 mm 641 W/m 16,0 C 21,7 C 13,3 km/h (3 Bft)
16/06/2008 13:00 21,8 C 72 % 1007,7 hPa 0,0 l/m 9,2 km/h (2 Bft) E 0,57 h 0,432 mm 539 W/m 16,6 C 21,8 C 14,3 km/h (3 Bft)
16/06/2008 14:00 20,6 C 78 % 1008,0 hPa 0,0 l/m 10,0 km/h (2 Bft) E 0,08 h 0,356 mm 332 W/m 16,7 C 20,6 C 15,3 km/h (3 Bft)
16/06/2008 15:00 20,8 C 78 % 1007,6 hPa 0,0 l/m 9,3 km/h (2 Bft) E 0,37 h 0,254 mm 465 W/m 16,8 C 20,8 C 13,9 km/h (3 Bft)
16/06/2008 16:00 20,9 C 77 % 1007,3 hPa 0,0 l/m 9,0 km/h (2 Bft) E 0,60 h 0,305 mm 474 W/m 16,7 C 20,9 C 14,1 km/h (3 Bft)
16/06/2008 17:00 20,5 C 76 % 1006,9 hPa 0,0 l/m 7,6 km/h (2 Bft) E 0,38 h 0,330 mm 303 W/m 16,2 C 20,5 C 12,8 km/h (3 Bft)
16/06/2008 18:00 19,8 C 78 % 1007,0 hPa 0,0 l/m 5,7 km/h (1 Bft) E 0,03 h 0,203 mm 183 W/m 15,8 C 19,8 C 8,7 km/h (2 Bft)
16/06/2008 19:00 19,3 C 80 % 1007,2 hPa 0,0 l/m 3,0 km/h (1 Bft) E-SE 0,00 h 0,127 mm 85 W/m 15,7 C 19,3 C 5,2 km/h (1 Bft)
16/06/2008 20:00 18,3 C 81 % 1007,1 hPa 0,0 l/m 1,7 km/h (1 Bft) E 0,00 h 0,051 mm 26 W/m 15,0 C 18,3 C 3,5 km/h (1 Bft)
16/06/2008 21:00 17,4 C 82 % 1006,9 hPa 0,0 l/m 1,4 km/h (1 Bft) E 0,00 h 0,025 mm 5 W/m 14,4 C 17,4 C 2,6 km/h (1 Bft)
16/06/2008 22:00 17,3 C 83 % 1006,9 hPa 0,0 l/m 1,4 km/h (1 Bft) N 0,00 h 0,000 mm 0 W/m 14,3 C 17,3 C 3,8 km/h (1 Bft)
16/06/2008 23:00 17,3 C 81 % 1006,7 hPa 0,2 l/m 1,4 km/h (1 Bft) N-NE 0,00 h 0,025 mm 0 W/m 13,9 C 17,3 C 3,2 km/h (1 Bft)
17/06/2008 00:00 17,1 C 81 % 1006,8 hPa 0,0 l/m 3,0 km/h (1 Bft) NE 0,00 h 0,025 mm 0 W/m 13,9 C 17,1 C 5,2 km/h (1 Bft)
17/06/2008 01:00 16,7 C 83 % 1006,4 hPa 0,0 l/m 2,8 km/h (1 Bft) NE 0,00 h 0,025 mm 0 W/m 13,8 C 16,7 C 4,6 km/h (1 Bft)
17/06/2008 02:00 16,1 C 84 % 1006,4 hPa 0,0 l/m 1,2 km/h (1 Bft) N 0,00 h 0,025 mm 0 W/m 13,5 C 16,1 C 3,0 km/h (1 Bft)
17/06/2008 03:00 16,3 C 86 % 1006,4 hPa 0,0 l/m 3,3 km/h (1 Bft) O 0,00 h 0,025 mm 0 W/m 13,9 C 16,3 C 4,3 km/h (1 Bft)
17/06/2008 04:00 16,9 C 82 % 1006,1 hPa 0,0 l/m 5,9 km/h (2 Bft) O 0,00 h 0,025 mm 0 W/m 13,7 C 16,9 C 7,5 km/h (2 Bft)
17/06/2008 05:00 16,9 C 78 % 1006,0 hPa 0,0 l/m 1,6 km/h (1 Bft) O 0,00 h 0,025 mm 5 W/m 12,9 C 16,9 C 3,1 km/h (1 Bft)
17/06/2008 06:00 16,8 C 78 % 1006,5 hPa 0,0 l/m 0,6 km/h (0 Bft) NO 0,00 h 0,000 mm 26 W/m 13,0 C 16,8 C 1,2 km/h (1 Bft)
17/06/2008 07:00 17,8 C 78 % 1007,0 hPa 0,0 l/m 1,1 km/h (0 Bft) E-NE 0,48 h 0,025 mm 149 W/m 13,9 C 17,8 C 1,9 km/h (1 Bft)
17/06/2008 08:00 20,4 C 70 % 1007,0 hPa 0,0 l/m 3,7 km/h (1 Bft) E-NE 1,00 h 0,102 mm 361 W/m 14,9 C 20,4 C 6,3 km/h (2 Bft)
17/06/2008 09:00 22,3 C 68 % 1007,3 hPa 0,0 l/m 8,4 km/h (2 Bft) E 0,87 h 0,229 mm 492 W/m 16,0 C 22,3 C 12,6 km/h (3 Bft)
17/06/2008 10:00 21,4 C 77 % 1007,8 hPa 0,0 l/m 9,3 km/h (2 Bft) E 0,22 h 0,330 mm 357 W/m 17,2 C 21,4 C 15,8 km/h (3 Bft)
17/06/2008 11:00 21,7 C 78 % 1008,1 hPa 0,0 l/m 11,2 km/h (2 Bft) E 0,32 h 0,279 mm 524 W/m 17,8 C 21,7 C 17,6 km/h (3 Bft)
17/06/2008 12:00 22,0 C 79 % 1008,7 hPa 0,0 l/m 9,5 km/h (2 Bft) E 0,23 h 0,381 mm 485 W/m 18,1 C 22,0 C 15,6 km/h (3 Bft)
17/06/2008 13:00 22,4 C 77 % 1008,9 hPa 0,0 l/m 10,0 km/h (2 Bft) E 0,43 h 0,406 mm 667 W/m 18,1 C 22,4 C 15,7 km/h (3 Bft)
17/06/2008 14:00 23,4 C 71 % 1008,3 hPa 0,0 l/m 11,5 km/h (2 Bft) E 0,62 h 0,457 mm 749 W/m 17,9 C 23,4 C 17,0 km/h (3 Bft)
17/06/2008 15:00 22,7 C 76 % 1008,4 hPa 0,0 l/m 13,5 km/h (3 Bft) E 0,60 h 0,533 mm 583 W/m 18,4 C 22,7 C 19,6 km/h (3 Bft)
17/06/2008 16:00 19,5 C 86 % 1008,9 hPa 14,2 l/m 8,2 km/h (2 Bft) E 0,00 h 0,381 mm 40 W/m 17,1 C 19,5 C 11,9 km/h (2 Bft)
17/06/2008 17:00 18,3 C 94 % 1009,3 hPa 0,2 l/m 1,8 km/h (1 Bft) NE 0,00 h 0,051 mm 106 W/m 17,3 C 18,3 C 3,6 km/h (1 Bft)
17/06/2008 18:00 18,6 C 95 % 1009,3 hPa 0,2 l/m 2,2 km/h (1 Bft) E-NE 0,22 h 0,076 mm 191 W/m 17,8 C 18,6 C 3,8 km/h (1 Bft)
17/06/2008 19:00 17,7 C 95 % 1009,2 hPa 0,0 l/m 2,9 km/h (1 Bft) S-SE 0,00 h 0,102 mm 55 W/m 16,9 C 17,7 C 4,8 km/h (1 Bft)
17/06/2008 20:00 17,2 C 95 % 1010,0 hPa 0,0 l/m 4,6 km/h (1 Bft) O 0,00 h 0,025 mm 18 W/m 16,4 C 17,2 C 6,7 km/h (2 Bft)
17/06/2008 21:00 17,3 C 95 % 1010,3 hPa 0,2 l/m 5,8 km/h (2 Bft) O-NO 0,00 h 0,025 mm 0 W/m 16,5 C 17,3 C 8,0 km/h (2 Bft)
17/06/2008 22:00 16,9 C 95 % 1010,6 hPa 0,0 l/m 4,3 km/h (1 Bft) NO 0,00 h 0,000 mm 0 W/m 16,1 C 16,9 C 6,2 km/h (2 Bft)
17/06/2008 23:00 16,2 C 95 % 1010,6 hPa 0,0 l/m 1,6 km/h (1 Bft) O 0,00 h 0,025 mm 0 W/m 15,4 C 16,2 C 2,8 km/h (1 Bft)
18/06/2008 00:00 15,6 C 95 % 1010,7 hPa 0,0 l/m 1,4 km/h (1 Bft) O 0,00 h 0,000 mm 0 W/m 14,8 C 15,6 C 2,0 km/h (1 Bft)
18/06/2008 01:00 14,9 C 95 % 1010,6 hPa 0,0 l/m 1,8 km/h (1 Bft) O 0,00 h 0,000 mm 0 W/m 14,1 C 14,9 C 2,9 km/h (1 Bft)
18/06/2008 02:00 14,7 C 95 % 1010,6 hPa 0,2 l/m 3,4 km/h (1 Bft) O 0,00 h 0,000 mm 0 W/m 13,9 C 14,7 C 5,0 km/h (1 Bft)
18/06/2008 03:00 14,4 C 95 % 1010,5 hPa 0,0 l/m 4,3 km/h (1 Bft) O 0,00 h 0,000 mm 0 W/m 13,7 C 14,4 C 6,1 km/h (2 Bft)
18/06/2008 04:00 13,8 C 95 % 1010,4 hPa 0,0 l/m 2,0 km/h (1 Bft) O-NO 0,00 h 0,000 mm 0 W/m 13,1 C 13,8 C 3,6 km/h (1 Bft)
18/06/2008 05:00 13,4 C 95 % 1010,4 hPa 0,0 l/m 1,8 km/h (1 Bft) O 0,00 h 0,000 mm 6 W/m 12,7 C 13,4 C 2,8 km/h (1 Bft)
18/06/2008 06:00 13,7 C 96 % 1010,8 hPa 0,0 l/m 1,1 km/h (1 Bft) O 0,02 h 0,000 mm 17 W/m 13,0 C 13,7 C 1,8 km/h (1 Bft)
18/06/2008 07:00 15,0 C 96 % 1011,5 hPa 0,0 l/m 0,1 km/h (0 Bft) O 0,48 h 0,000 mm 131 W/m 14,4 C 15,0 C 0,6 km/h (0 Bft)
18/06/2008 08:00 17,6 C 92 % 1011,9 hPa 0,0 l/m 0,5 km/h (0 Bft) O 1,00 h 0,076 mm 378 W/m 16,2 C 17,6 C 1,7 km/h (1 Bft)
18/06/2008 09:00 20,5 C 75 % 1012,4 hPa 0,0 l/m 4,3 km/h (1 Bft) NE 1,00 h 0,203 mm 545 W/m 16,0 C 20,5 C 7,3 km/h (2 Bft)
18/06/2008 10:00 21,8 C 74 % 1012,5 hPa 0,0 l/m 7,4 km/h (2 Bft) E 1,00 h 0,330 mm 692 W/m 17,0 C 21,8 C 12,1 km/h (2 Bft)
18/06/2008 11:00 22,6 C 74 % 1012,7 hPa 0,0 l/m 8,2 km/h (2 Bft) E 1,00 h 0,432 mm 797 W/m 17,8 C 22,6 C 13,3 km/h (3 Bft)
18/06/2008 12:00 22,9 C 69 % 1013,1 hPa 0,0 l/m 8,2 km/h (2 Bft) E 1,00 h 0,508 mm 889 W/m 16,9 C 22,9 C 13,7 km/h (3 Bft)
18/06/2008 13:00 23,3 C 65 % 1013,5 hPa 0,0 l/m 8,8 km/h (2 Bft) E 1,00 h 0,584 mm 920 W/m 16,3 C 23,3 C 13,6 km/h (3 Bft)
18/06/2008 14:00 24,1 C 63 % 1013,7 hPa 0,0 l/m 6,8 km/h (2 Bft) E 1,00 h 0,610 mm 898 W/m 16,4 C 24,1 C 10,5 km/h (2 Bft)
18/06/2008 15:00 24,6 C 58 % 1013,4 hPa 0,0 l/m 5,9 km/h (2 Bft) E 1,00 h 0,584 mm 830 W/m 15,8 C 24,6 C 10,6 km/h (2 Bft)
18/06/2008 16:00 24,3 C 65 % 1013,6 hPa 0,0 l/m 7,6 km/h (2 Bft) E 1,00 h 0,559 mm 712 W/m 17,2 C 24,3 C 11,8 km/h (2 Bft)
18/06/2008 17:00 23,6 C 68 % 1013,8 hPa 0,0 l/m 7,1 km/h (2 Bft) E 1,00 h 0,483 mm 561 W/m 17,2 C 23,6 C 10,0 km/h (2 Bft)
18/06/2008 18:00 23,1 C 66 % 1013,7 hPa 0,0 l/m 4,1 km/h (1 Bft) E 1,00 h 0,381 mm 386 W/m 16,4 C 23,1 C 6,2 km/h (2 Bft)
18/06/2008 19:00 22,6 C 67 % 1013,7 hPa 0,0 l/m 1,0 km/h (0 Bft) E 0,92 h 0,254 mm 206 W/m 16,1 C 22,6 C 2,6 km/h (1 Bft)
18/06/2008 20:00 21,2 C 73 % 1013,7 hPa 0,0 l/m 0,4 km/h (0 Bft) E 0,10 h 0,127 mm 35 W/m 16,2 C 21,2 C 0,9 km/h (0 Bft)
18/06/2008 21:00 19,5 C 77 % 1013,9 hPa 0,0 l/m 1,3 km/h (1 Bft) NO 0,10 h 0,025 mm 12 W/m 15,3 C 19,5 C 2,2 km/h (1 Bft)
18/06/2008 22:00 18,8 C 81 % 1014,4 hPa 0,0 l/m 2,6 km/h (1 Bft) O-NO 0,00 h 0,025 mm 0 W/m 15,5 C 18,8 C 4,9 km/h (1 Bft)
18/06/2008 23:00 18,3 C 82 % 1014,7 hPa 0,0 l/m 2,0 km/h (1 Bft) O-NO 0,00 h 0,025 mm 0 W/m 15,2 C 18,3 C 3,4 km/h (1 Bft)
19/06/2008 00:00 17,8 C 82 % 1014,8 hPa 0,0 l/m 3,0 km/h (1 Bft) NO 0,00 h 0,025 mm 0 W/m 14,6 C 17,8 C 4,7 km/h (1 Bft)
19/06/2008 01:00 17,7 C 80 % 1014,8 hPa 0,0 l/m 2,7 km/h (1 Bft) NO 0,00 h 0,025 mm 0 W/m 14,2 C 17,7 C 4,0 km/h (1 Bft)
19/06/2008 02:00 17,4 C 79 % 1014,6 hPa 0,0 l/m 0,5 km/h (0 Bft) NO 0,00 h 0,025 mm 0 W/m 13,6 C 17,4 C 0,9 km/h (0 Bft)
19/06/2008 03:00 17,0 C 80 % 1014,4 hPa 0,0 l/m 2,0 km/h (1 Bft) NO 0,00 h 0,025 mm 0 W/m 13,5 C 17,0 C 3,0 km/h (1 Bft)
19/06/2008 04:00 17,0 C 80 % 1014,2 hPa 0,0 l/m 2,6 km/h (1 Bft) NO 0,00 h 0,025 mm 0 W/m 13,6 C 17,0 C 3,9 km/h (1 Bft)
19/06/2008 05:00 16,7 C 80 % 1014,4 hPa 0,0 l/m 1,3 km/h (1 Bft) NO 0,00 h 0,025 mm 6 W/m 13,2 C 16,7 C 2,3 km/h (1 Bft)
19/06/2008 06:00 16,5 C 84 % 1014,7 hPa 0,0 l/m 0,7 km/h (0 Bft) NO 0,02 h 0,000 mm 19 W/m 13,8 C 16,5 C 1,2 km/h (1 Bft)
19/06/2008 07:00 17,9 C 83 % 1014,7 hPa 0,0 l/m 0,1 km/h (0 Bft) NO 0,47 h 0,025 mm 129 W/m 14,9 C 17,9 C 0,3 km/h (0 Bft)
19/06/2008 08:00 20,5 C 75 % 1015,1 hPa 0,0 l/m 0,8 km/h (0 Bft) SE 1,00 h 0,076 mm 371 W/m 16,0 C 20,5 C 2,2 km/h (1 Bft)
19/06/2008 09:00 22,4 C 69 % 1015,3 hPa 0,0 l/m 4,7 km/h (1 Bft) E 1,00 h 0,229 mm 542 W/m 16,5 C 22,4 C 7,3 km/h (2 Bft)
19/06/2008 10:00 22,9 C 71 % 1015,6 hPa 0,0 l/m 7,1 km/h (2 Bft) E 1,00 h 0,356 mm 695 W/m 17,4 C 22,9 C 10,4 km/h (2 Bft)
19/06/2008 11:00 23,5 C 69 % 1015,8 hPa 0,0 l/m 8,7 km/h (2 Bft) E 1,00 h 0,457 mm 816 W/m 17,4 C 23,5 C 12,9 km/h (3 Bft)
19/06/2008 12:00 24,2 C 67 % 1015,9 hPa 0,0 l/m 8,6 km/h (2 Bft) E 1,00 h 0,533 mm 891 W/m 17,7 C 24,2 C 13,1 km/h (3 Bft)
19/06/2008 13:00 24,0 C 64 % 1015,8 hPa 0,0 l/m 9,1 km/h (2 Bft) E 1,00 h 0,584 mm 904 W/m 16,7 C 24,0 C 13,1 km/h (3 Bft)
19/06/2008 14:00 24,5 C 62 % 1015,8 hPa 0,0 l/m 7,8 km/h (2 Bft) E 1,00 h 0,610 mm 875 W/m 16,8 C 24,5 C 12,5 km/h (3 Bft)
19/06/2008 15:00 24,4 C 64 % 1015,8 hPa 0,0 l/m 8,3 km/h (2 Bft) E 1,00 h 0,584 mm 797 W/m 17,0 C 24,4 C 12,9 km/h (3 Bft)
19/06/2008 16:00 24,5 C 60 % 1015,7 hPa 0,0 l/m 6,8 km/h (2 Bft) E 1,00 h 0,533 mm 686 W/m 16,1 C 24,5 C 10,3 km/h (2 Bft)
19/06/2008 17:00 24,6 C 62 % 1015,4 hPa 0,0 l/m 5,1 km/h (1 Bft) E 1,00 h 0,483 mm 541 W/m 16,7 C 24,6 C 8,3 km/h (2 Bft)
19/06/2008 18:00 23,5 C 70 % 1015,2 hPa 0,0 l/m 5,5 km/h (1 Bft) E 1,00 h 0,381 mm 372 W/m 17,7 C 23,5 C 8,2 km/h (2 Bft)
19/06/2008 19:00 22,8 C 74 % 1014,9 hPa 0,0 l/m 3,1 km/h (1 Bft) E 0,98 h 0,254 mm 201 W/m 17,9 C 22,8 C 5,2 km/h (1 Bft)
19/06/2008 20:00 21,0 C 80 % 1015,1 hPa 0,0 l/m 1,7 km/h (1 Bft) E 0,10 h 0,127 mm 41 W/m 17,4 C 21,0 C 3,0 km/h (1 Bft)
19/06/2008 21:00 19,6 C 87 % 1015,3 hPa 0,0 l/m 0,3 km/h (0 Bft) E 0,03 h 0,025 mm 8 W/m 17,3 C 19,6 C 0,7 km/h (0 Bft)
19/06/2008 22:00 18,9 C 90 % 1015,7 hPa 0,0 l/m 0,1 km/h (0 Bft) E 0,00 h 0,000 mm 0 W/m 17,3 C 18,9 C 0,2 km/h (0 Bft)
19/06/2008 23:00 18,9 C 92 % 1015,8 hPa 0,0 l/m 0,0 km/h (0 Bft) N 0,00 h 0,025 mm 0 W/m 17,5 C 18,9 C 0,0 km/h (0 Bft)
20/06/2008 00:00 18,2 C 92 % 1015,7 hPa 0,0 l/m 0,4 km/h (0 Bft) E 0,00 h 0,025 mm 0 W/m 16,9 C 18,2 C 0,6 km/h (0 Bft)
20/06/2008 01:00 17,8 C 93 % 1015,5 hPa 0,0 l/m 2,2 km/h (1 Bft) E 0,00 h 0,025 mm 0 W/m 16,6 C 17,8 C 3,8 km/h (1 Bft)
20/06/2008 02:00 17,2 C 93 % 1015,4 hPa 0,0 l/m 0,3 km/h (0 Bft) E 0,00 h 0,025 mm 0 W/m 16,1 C 17,2 C 0,6 km/h (0 Bft)
20/06/2008 03:00 16,4 C 93 % 1015,3 hPa 0,0 l/m 0,9 km/h (0 Bft) E 0,00 h 0,000 mm 0 W/m 15,4 C 16,4 C 1,9 km/h (1 Bft)
20/06/2008 04:00 16,6 C 94 % 1015,2 hPa 0,0 l/m 0,6 km/h (0 Bft) E 0,00 h 0,000 mm 0 W/m 15,6 C 16,6 C 1,4 km/h (1 Bft)
20/06/2008 05:00 17,0 C 94 % 1015,3 hPa 0,0 l/m 0,2 km/h (0 Bft) E 0,00 h 0,000 mm 6 W/m 16,1 C 17,0 C 0,4 km/h (0 Bft)
20/06/2008 06:00 16,6 C 95 % 1015,5 hPa 0,0 l/m 1,0 km/h (0 Bft) E 0,02 h 0,000 mm 28 W/m 15,8 C 16,6 C 1,7 km/h (1 Bft)
20/06/2008 07:00 17,5 C 95 % 1015,9 hPa 0,0 l/m 0,8 km/h (0 Bft) E 0,40 h 0,025 mm 126 W/m 16,6 C 17,5 C 1,6 km/h (1 Bft)
20/06/2008 08:00 19,6 C 90 % 1016,5 hPa 0,0 l/m 2,1 km/h (1 Bft) E 0,68 h 0,076 mm 331 W/m 17,9 C 19,6 C 3,9 km/h (1 Bft)
20/06/2008 09:00 22,0 C 79 % 1016,8 hPa 0,0 l/m 4,8 km/h (1 Bft) E 0,88 h 0,203 mm 525 W/m 18,2 C 22,0 C 7,5 km/h (2 Bft)
20/06/2008 10:00 23,2 C 76 % 1016,8 hPa 0,0 l/m 4,7 km/h (1 Bft) E 0,95 h 0,305 mm 692 W/m 18,8 C 23,2 C 8,0 km/h (2 Bft)
20/06/2008 11:00 24,2 C 73 % 1016,8 hPa 0,0 l/m 7,5 km/h (2 Bft) E 1,00 h 0,432 mm 800 W/m 19,1 C 24,2 C 11,2 km/h (2 Bft)
20/06/2008 12:00 24,2 C 75 % 1016,9 hPa 0,0 l/m 9,4 km/h (2 Bft) E 1,00 h 0,533 mm 871 W/m 19,4 C 24,2 C 14,2 km/h (3 Bft)
20/06/2008 13:00 24,5 C 73 % 1016,9 hPa 0,0 l/m 8,3 km/h (2 Bft) E 1,00 h 0,584 mm 901 W/m 19,3 C 24,5 C 12,4 km/h (3 Bft)
20/06/2008 14:00 24,5 C 71 % 1016,8 hPa 0,0 l/m 7,8 km/h (2 Bft) E 1,00 h 0,584 mm 873 W/m 18,9 C 24,5 C 12,0 km/h (2 Bft)
20/06/2008 15:00 24,9 C 66 % 1016,4 hPa 0,0 l/m 8,0 km/h (2 Bft) E 1,00 h 0,584 mm 800 W/m 18,1 C 24,9 C 12,3 km/h (3 Bft)
20/06/2008 16:00 25,1 C 64 % 1016,3 hPa 0,0 l/m 6,4 km/h (2 Bft) E 1,00 h 0,533 mm 684 W/m 17,8 C 25,1 C 10,2 km/h (2 Bft)
20/06/2008 17:00 24,6 C 64 % 1016,3 hPa 0,0 l/m 4,7 km/h (1 Bft) E 1,00 h 0,457 mm 538 W/m 17,4 C 24,6 C 7,5 km/h (2 Bft)
20/06/2008 18:00 24,2 C 65 % 1016,2 hPa 0,0 l/m 3,5 km/h (1 Bft) E-SE 1,00 h 0,356 mm 374 W/m 17,1 C 24,2 C 5,8 km/h (1 Bft)
20/06/2008 19:00 23,0 C 71 % 1016,0 hPa 0,0 l/m 2,0 km/h (1 Bft) E 1,00 h 0,254 mm 202 W/m 17,3 C 23,0 C 3,9 km/h (1 Bft)
20/06/2008 20:00 21,5 C 72 % 1015,8 hPa 0,0 l/m 0,1 km/h (0 Bft) E 0,12 h 0,127 mm 42 W/m 16,3 C 21,5 C 0,4 km/h (0 Bft)
20/06/2008 21:00 20,0 C 74 % 1015,9 hPa 0,0 l/m 0,0 km/h (0 Bft) N 0,03 h 0,025 mm 8 W/m 15,3 C 20,0 C 0,0 km/h (0 Bft)
20/06/2008 22:00 19,4 C 78 % 1016,4 hPa 0,0 l/m 0,0 km/h (0 Bft) N 0,00 h 0,000 mm 0 W/m 15,5 C 19,4 C 0,0 km/h (0 Bft)
20/06/2008 23:00 19,0 C 82 % 1016,8 hPa 0,0 l/m 0,6 km/h (0 Bft) E 0,00 h 0,025 mm 0 W/m 15,8 C 19,0 C 1,3 km/h (1 Bft)
21/06/2008 00:00 18,6 C 86 % 1016,9 hPa 0,0 l/m 1,5 km/h (1 Bft) E 0,00 h 0,025 mm 0 W/m 16,2 C 18,6 C 2,6 km/h (1 Bft)
21/06/2008 01:00 18,9 C 84 % 1016,7 hPa 0,0 l/m 1,1 km/h (1 Bft) E 0,00 h 0,025 mm 0 W/m 16,1 C 18,9 C 1,7 km/h (1 Bft)
21/06/2008 02:00 18,9 C 82 % 1016,5 hPa 0,0 l/m 1,1 km/h (1 Bft) E 0,00 h 0,025 mm 0 W/m 15,8 C 18,9 C 1,8 km/h (1 Bft)
21/06/2008 03:00 18,9 C 80 % 1016,3 hPa 0,0 l/m 0,3 km/h (0 Bft) E 0,00 h 0,025 mm 0 W/m 15,3 C 18,9 C 0,5 km/h (0 Bft)
21/06/2008 04:00 18,5 C 82 % 1016,4 hPa 0,0 l/m 2,6 km/h (1 Bft) E 0,00 h 0,025 mm 0 W/m 15,3 C 18,5 C 3,3 km/h (1 Bft)
21/06/2008 05:00 18,9 C 80 % 1016,4 hPa 0,0 l/m 6,7 km/h (2 Bft) O 0,00 h 0,025 mm 6 W/m 15,3 C 18,9 C 8,1 km/h (2 Bft)
21/06/2008 06:00 19,1 C 79 % 1016,6 hPa 0,0 l/m 2,2 km/h (1 Bft) O 0,02 h 0,025 mm 22 W/m 15,3 C 19,1 C 3,5 km/h (1 Bft)
21/06/2008 07:00 20,3 C 76 % 1017,0 hPa 0,0 l/m 0,0 km/h (0 Bft) O 0,47 h 0,025 mm 124 W/m 16,0 C 20,3 C 0,3 km/h (0 Bft)
21/06/2008 08:00 22,8 C 68 % 1017,1 hPa 0,0 l/m 0,8 km/h (0 Bft) O 1,00 h 0,076 mm 354 W/m 16,5 C 22,8 C 2,4 km/h (1 Bft)
21/06/2008 09:00 25,5 C 62 % 1017,3 hPa 0,0 l/m 1,9 km/h (1 Bft) E 1,00 h 0,229 mm 525 W/m 17,7 C 25,5 C 3,9 km/h (1 Bft)
21/06/2008 10:00 26,4 C 60 % 1017,8 hPa 0,0 l/m 5,4 km/h (1 Bft) E 1,00 h 0,356 mm 672 W/m 18,0 C 26,4 C 8,2 km/h (2 Bft)
21/06/2008 11:00 26,7 C 62 % 1018,0 hPa 0,0 l/m 7,1 km/h (2 Bft) E 1,00 h 0,457 mm 796 W/m 18,8 C 26,7 C 9,7 km/h (2 Bft)
21/06/2008 12:00 27,1 C 58 % 1018,4 hPa 0,0 l/m 7,3 km/h (2 Bft) E 1,00 h 0,559 mm 877 W/m 18,0 C 27,1 C 10,8 km/h (2 Bft)
21/06/2008 13:00 27,3 C 53 % 1018,4 hPa 0,0 l/m 7,9 km/h (2 Bft) E 1,00 h 0,610 mm 909 W/m 16,7 C 27,3 C 11,1 km/h (2 Bft)
21/06/2008 14:00 28,3 C 41 % 1018,3 hPa 0,0 l/m 6,4 km/h (2 Bft) E 1,00 h 0,660 mm 884 W/m 13,8 C 28,3 C 9,8 km/h (2 Bft)
21/06/2008 15:00 28,6 C 44 % 1017,8 hPa 0,0 l/m 6,6 km/h (2 Bft) E 1,00 h 0,635 mm 804 W/m 14,9 C 28,6 C 10,1 km/h (2 Bft)
21/06/2008 16:00 28,9 C 45 % 1017,7 hPa 0,0 l/m 5,3 km/h (1 Bft) E 1,00 h 0,584 mm 687 W/m 15,6 C 28,9 C 8,2 km/h (2 Bft)
21/06/2008 17:00 29,6 C 39 % 1017,2 hPa 0,0 l/m 3,4 km/h (1 Bft) E 1,00 h 0,508 mm 542 W/m 14,0 C 29,6 C 5,8 km/h (2 Bft)
21/06/2008 18:00 28,6 C 47 % 1017,1 hPa 0,0 l/m 3,9 km/h (1 Bft) E 1,00 h 0,406 mm 376 W/m 16,0 C 28,6 C 6,5 km/h (2 Bft)
21/06/2008 19:00 26,3 C 60 % 1017,3 hPa 0,0 l/m 2,2 km/h (1 Bft) E-SE 1,00 h 0,279 mm 206 W/m 17,9 C 26,3 C 4,1 km/h (1 Bft)
21/06/2008 20:00 24,5 C 67 % 1017,3 hPa 0,0 l/m 0,2 km/h (0 Bft) E-SE 0,15 h 0,152 mm 43 W/m 17,9 C 24,5 C 0,5 km/h (0 Bft)
21/06/2008 21:00 22,3 C 74 % 1017,4 hPa 0,0 l/m 0,4 km/h (0 Bft) E-SE 0,03 h 0,025 mm 8 W/m 17,3 C 22,3 C 0,8 km/h (0 Bft)
21/06/2008 22:00 21,8 C 70 % 1017,7 hPa 0,0 l/m 1,7 km/h (1 Bft) E-SE 0,00 h 0,000 mm 0 W/m 16,1 C 21,8 C 3,2 km/h (1 Bft)
21/06/2008 23:00 21,7 C 66 % 1017,8 hPa 0,0 l/m 3,0 km/h (1 Bft) NO 0,00 h 0,051 mm 0 W/m 15,0 C 21,7 C 4,6 km/h (1 Bft)
22/06/2008 00:00 22,1 C 60 % 1017,9 hPa 0,0 l/m 2,7 km/h (1 Bft) O-NO 0,00 h 0,051 mm 0 W/m 13,9 C 22,1 C 4,1 km/h (1 Bft)
22/06/2008 01:00 21,4 C 60 % 1017,8 hPa 0,0 l/m 1,7 km/h (1 Bft) O-NO 0,00 h 0,051 mm 0 W/m 13,4 C 21,4 C 3,4 km/h (1 Bft)
22/06/2008 02:00 20,9 C 59 % 1017,7 hPa 0,0 l/m 4,1 km/h (1 Bft) NO 0,00 h 0,051 mm 0 W/m 12,6 C 20,9 C 5,8 km/h (2 Bft)
22/06/2008 03:00 21,3 C 55 % 1017,4 hPa 0,0 l/m 3,3 km/h (1 Bft) O-NO 0,00 h 0,051 mm 0 W/m 12,0 C 21,3 C 4,7 km/h (1 Bft)
22/06/2008 04:00 20,3 C 58 % 1017,2 hPa 0,0 l/m 0,6 km/h (0 Bft) NO 0,00 h 0,051 mm 0 W/m 11,7 C 20,3 C 1,1 km/h (0 Bft)
22/06/2008 05:00 20,0 C 57 % 1017,2 hPa 0,0 l/m 2,9 km/h (1 Bft) O 0,00 h 0,051 mm 6 W/m 11,1 C 20,0 C 4,9 km/h (1 Bft)
22/06/2008 06:00 19,6 C 59 % 1017,3 hPa 0,0 l/m 2,9 km/h (1 Bft) O-NO 0,02 h 0,025 mm 20 W/m 11,4 C 19,6 C 4,8 km/h (1 Bft)
22/06/2008 07:00 21,3 C 59 % 1017,7 hPa 0,0 l/m 0,8 km/h (0 Bft) N-NO 0,43 h 0,051 mm 125 W/m 12,9 C 21,3 C 2,3 km/h (1 Bft)
22/06/2008 08:00 24,6 C 52 % 1018,0 hPa 0,0 l/m 0,6 km/h (0 Bft) N-NE 1,00 h 0,076 mm 365 W/m 13,9 C 24,6 C 2,1 km/h (1 Bft)
22/06/2008 09:00 26,7 C 50 % 1018,3 hPa 0,0 l/m 4,4 km/h (1 Bft) NE 1,00 h 0,229 mm 532 W/m 15,4 C 26,7 C 7,0 km/h (2 Bft)
22/06/2008 10:00 28,0 C 52 % 1018,4 hPa 0,0 l/m 4,7 km/h (1 Bft) E 1,00 h 0,381 mm 686 W/m 17,2 C 28,0 C 7,6 km/h (2 Bft)
22/06/2008 11:00 29,4 C 46 % 1018,5 hPa 0,0 l/m 5,4 km/h (1 Bft) E 1,00 h 0,483 mm 809 W/m 16,6 C 29,4 C 8,3 km/h (2 Bft)
22/06/2008 12:00 31,1 C 35 % 1018,6 hPa 0,0 l/m 6,5 km/h (2 Bft) E-NE 1,00 h 0,584 mm 894 W/m 13,7 C 31,1 C 9,8 km/h (2 Bft)
22/06/2008 13:00 30,7 C 36 % 1018,6 hPa 0,0 l/m 6,9 km/h (2 Bft) E 1,00 h 0,686 mm 923 W/m 13,8 C 30,7 C 10,8 km/h (2 Bft)
22/06/2008 14:00 30,9 C 36 % 1018,2 hPa 0,0 l/m 6,8 km/h (2 Bft) E 1,00 h 0,711 mm 897 W/m 14,0 C 30,9 C 10,3 km/h (2 Bft)
22/06/2008 15:00 30,8 C 35 % 1018,2 hPa 0,0 l/m 8,2 km/h (2 Bft) E 1,00 h 0,686 mm 823 W/m 13,6 C 30,8 C 12,1 km/h (2 Bft)
22/06/2008 16:00 30,3 C 41 % 1018,2 hPa 0,0 l/m 8,0 km/h (2 Bft) E 1,00 h 0,660 mm 704 W/m 15,5 C 30,3 C 11,7 km/h (2 Bft)
22/06/2008 17:00 29,7 C 44 % 1018,0 hPa 0,0 l/m 6,5 km/h (2 Bft) E 1,00 h 0,559 mm 556 W/m 16,2 C 29,7 C 9,2 km/h (2 Bft)
22/06/2008 18:00 28,8 C 49 % 1017,7 hPa 0,0 l/m 3,9 km/h (1 Bft) E 1,00 h 0,432 mm 388 W/m 16,9 C 28,8 C 6,3 km/h (2 Bft)
22/06/2008 19:00 27,1 C 57 % 1017,6 hPa 0,0 l/m 2,7 km/h (1 Bft) E 1,00 h 0,305 mm 214 W/m 17,8 C 27,1 C 4,5 km/h (1 Bft)
22/06/2008 20:00 25,2 C 63 % 1017,4 hPa 0,0 l/m 0,1 km/h (0 Bft) E 0,13 h 0,178 mm 41 W/m 17,6 C 25,2 C 0,7 km/h (0 Bft)
22/06/2008 21:00 23,1 C 70 % 1017,4 hPa 0,0 l/m 0,0 km/h (0 Bft) E 0,02 h 0,025 mm 7 W/m 17,4 C 23,1 C 0,3 km/h (0 Bft)
22/06/2008 22:00 22,3 C 73 % 1017,8 hPa 0,0 l/m 1,1 km/h (0 Bft) E 0,00 h 0,000 mm 0 W/m 17,1 C 22,3 C 2,2 km/h (1 Bft)
22/06/2008 23:00 22,2 C 71 % 1018,0 hPa 0,0 l/m 2,1 km/h (1 Bft) N 0,00 h 0,025 mm 0 W/m 16,6 C 22,2 C 3,6 km/h (1 Bft)
Min-Date _ 16/06/08 22/06/08 17/06/08 - 16/06/08 - - - - 16/06/08 16/06/08 16/06/08
_ Min-Heure 05:58 12:18 05:00 - 02:40 - - - - 07:23 05:58 02:43
Minimum _ 13,2 C 30 % 1005,9 hPa - 0,0 km/h (0 Bft) - - - - 10,1 C 13,2 C 0,0 km/h (0 Bft)
Max-Date _ 22/06/08 17/06/08 22/06/08 17/06/08 16/06/08 - 16/06/08 22/06/08 17/06/08 20/06/08 22/06/08 16/06/08
_ Max-Heure 15:24 18:41 12:15 16:38 00:18 - 06:01 14:00 13:44 13:00 15:24 00:23
Maximum _ 31,9 C 97 % 1018,7 hPa 14,2 l/m 25,7 km/h
SO (4 Bft)
- 0,02 h 0,711 mm 1222 W/m 20,4 C 31,9 C 32,2 km/h
SO (5 Bft)
Moyenne _ 21,0 C 73 % 1013,5 hPa #15,2 l/m 4,2 km/h (1 Bft) E #72:59 h #35,264 mm 417 W/m 15,6 C 21,0 C 6,5 km/h (2 Bft)
Roquefort les pins